Airfield :
LOGIN :

Register | Disclaimer

   EN    FR    IT 

 










Legend :    VFR   Marginal VFR   IFR   Intensive IFR   Very Intensive IFR
Visi :
Ceiling :
>= 8 km
>= 3000ft
5 to 8 km
1000 to 3000 ft
1500m to 5 km
500 to 1000 ft
800 to 1500m
200 to 500 ft
< 800m
< 200 ft
Symbols :   Thunderstorms  Fog  Heavy snow  Heavy precipitations  Wind > 20 kt
SIGMETs :     Misc.  Thunderstorms  Icing  Turbulence  Mountain Waves  Volcanic Ashes






- Airport Elevation : 511 ft
- IATA code : LHA


EDTL - Lahr Schwarzwald

CURRENT METAR :
  • 111450Z 12008KT 090V160 CAVOK 33/16 Q1014

EXPIRED METARs :
  • 111420Z VRB02KT CAVOK 32/17 Q1015
  • 111350Z VRB02KT CAVOK 32/17 Q1015
  • 111320Z 31004KT 270V010 CAVOK 31/17 Q1015
  • 111250Z 30005KT 250V330 CAVOK 31/17 Q1015
  • 111220Z 28005KT 240V310 CAVOK 31/17 Q1015

TAF TAF EDTL
Valid from the 11 at 15:00 until the 12 at 00:00 UTC


111400Z 1115/1124 VRB03KT CAVOK
PROB30
TEMPO 1115/1120 20015G35KT 4000 TSRA SCT060CB



MET'MAP, your aeronautical weather chart ! - Copyright ORBIFLY December 2007 - Disclaimer

ORBIFLY MET'MAP TEAM :

Programming & Development : Alexandra Zaïnal
Concept & original design : Baudouin d'Aumeries
Assistance for programming : Marc-Olivier Méhu
Technical & hardware support : Manuel Goepfert

Contact : metmap@orbifly.com




SOURCES & CREDITS :

   NOAA